Time;durP1;ratioP1;P1;durP2;ratioP2;P2;SDS_P1;SDS_P2;PMS_P1;PMS_P2;Temp;Humidity;BMP_temperature;BMP_pressure;BME280_temperature;BME280_humidity;BME280_pressure;Samples;Min_cycle;Max_cycle;Signal;HPM_P1;HPM_P2
2024/01/30 00:02:15;;;;;;;31.08;14.88;;;;;;;-146.27;84.76;42516.41;5064080;28;20067;-70
2024/01/30 00:04:40;;;;;;;27.20;15.25;;;;;;;-146.27;84.90;42524.34;5058541;28;20052;-70
2024/01/30 00:07:05;;;;;;;24.98;13.07;;;;;;;-146.27;84.70;42516.41;5060954;28;20071;-71
2024/01/30 00:09:31;;;;;;;28.05;13.60;;;;;;;-146.27;84.67;42536.28;5058422;28;20413;-71
2024/01/30 00:11:56;;;;;;;23.45;13.85;;;;;;;-146.27;84.83;42528.31;5062478;28;20055;-71
2024/01/30 00:14:22;;;;;;;23.45;13.52;;;;;;;-146.27;84.85;42512.41;5056238;28;20393;-71
2024/01/30 00:16:48;;;;;;;25.23;13.20;;;;;;;-146.27;84.82;42540.25;5066672;28;20043;-71
2024/01/30 00:19:14;;;;;;;24.48;13.43;;;;;;;-146.27;84.99;42550.22;5067215;28;20016;-71
2024/01/30 00:21:39;;;;;;;21.92;12.10;;;;;;;-146.27;84.93;42510.44;5066957;28;20078;-72
2024/01/30 00:24:04;;;;;;;25.55;12.32;;;;;;;-146.27;84.88;42508.44;5065872;28;20037;-71
2024/01/30 00:26:30;;;;;;;20.13;12.68;;;;;;;-146.27;84.90;42512.41;5065658;28;20367;-71
2024/01/30 00:28:55;;;;;;;20.77;12.07;;;;;;;-146.27;85.02;42504.47;5051944;28;20115;-69
2024/01/30 00:31:21;;;;;;;22.98;12.50;;;;;;;-146.27;84.83;42508.44;5056883;28;21111;-72
2024/01/30 00:33:46;;;;;;;22.65;11.68;;;;;;;-146.27;84.67;42516.41;5051069;28;20070;-71
2024/01/30 00:36:11;;;;;;;21.77;11.07;;;;;;;-146.27;84.64;42492.53;5066557;28;20024;-71
2024/01/30 00:38:37;;;;;;;21.38;12.15;;;;;;;-146.27;84.65;42496.50;5064209;28;20020;-71
2024/01/30 00:41:02;;;;;;;19.27;10.50;;;;;;;-146.27;84.55;42484.56;5068851;28;20032;-72
2024/01/30 00:43:29;;;;;;;22.02;11.13;;;;;;;-146.27;84.58;42502.47;5063487;28;20450;-72
2024/01/30 00:45:54;;;;;;;16.90;10.23;;;;;;;-146.27;84.50;42462.69;5065678;28;20020;-72
2024/01/30 00:48:20;;;;;;;20.95;9.77;;;;;;;-146.27;84.49;42486.56;5056184;28;20354;-71
2024/01/30 00:50:48;;;;;;;18.92;10.13;;;;;;;-146.27;84.96;42488.56;5053931;28;20044;-71
2024/01/30 00:53:13;;;;;;;13.02;8.90;;;;;;;-146.27;84.99;42496.50;5066142;28;20028;-72
2024/01/30 00:55:39;;;;;;;17.20;9.43;;;;;;;-146.27;84.75;42440.81;5069543;28;20082;-71
2024/01/30 00:58:05;;;;;;;13.15;8.43;;;;;;;-146.27;84.75;42482.59;5061678;28;20025;-72
2024/01/30 01:00:31;;;;;;;12.70;8.18;;;;;;;-146.27;84.46;42452.75;5058036;28;20314;-71
2024/01/30 01:02:58;;;;;;;16.55;7.82;;;;;;;-146.27;85.64;42552.19;5065049;28;20126;-70
2024/01/30 01:05:23;;;;;;;12.60;7.63;;;;;;;-146.27;84.43;42476.63;5062767;28;20036;-70
2024/01/30 01:07:48;;;;;;;18.05;8.38;;;;;;;-146.27;83.98;42418.94;5065983;28;20074;-69
2024/01/30 01:10:15;;;;;;;14.25;7.32;;;;;;;-146.27;83.47;42468.66;5071996;28;20039;-72
2024/01/30 01:12:41;;;;;;;10.93;7.95;;;;;;;-146.27;82.93;42466.69;5064123;28;20028;-71
2024/01/30 01:15:09;;;;;;;13.07;7.50;;;;;;;-146.27;82.69;42476.63;5066335;28;20370;-70
2024/01/30 01:17:35;;;;;;;10.85;7.75;;;;;;;-146.27;83.57;42472.66;5061030;28;20114;-72
2024/01/30 01:20:00;;;;;;;11.85;7.85;;;;;;;-146.27;83.60;42496.50;5067035;28;20070;-71
2024/01/30 01:22:26;;;;;;;11.27;7.90;;;;;;;-146.27;83.25;42480.59;5067668;28;20036;-71
2024/01/30 01:24:51;;;;;;;10.13;6.97;;;;;;;-146.27;82.63;42468.66;5073035;28;20035;-71
2024/01/30 01:27:17;;;;;;;11.85;6.95;;;;;;;-146.27;82.88;42494.53;5071227;28;20437;-72
2024/01/30 01:29:43;;;;;;;15.60;8.45;;;;;;;-146.27;82.36;42492.53;5060848;28;20052;-71
2024/01/30 01:32:08;;;;;;;12.00;7.22;;;;;;;-146.27;82.34;42476.63;5056415;28;20017;-71
2024/01/30 01:34:33;;;;;;;10.77;7.07;;;;;;;-146.27;82.17;42496.50;5052591;28;20071;-72
2024/01/30 01:36:59;;;;;;;18.15;8.25;;;;;;;-146.27;82.21;42528.31;5053749;28;20064;-72
2024/01/30 01:39:25;;;;;;;11.43;8.00;;;;;;;-146.27;82.34;42496.50;5072618;28;20075;-71
2024/01/30 01:41:51;;;;;;;14.25;7.97;;;;;;;-146.27;82.44;42522.38;5072268;28;20029;-71
2024/01/30 01:44:18;;;;;;;13.73;7.85;;;;;;;-146.27;82.52;42536.28;5054388;28;20033;-71
2024/01/30 01:46:43;;;;;;;11.63;7.70;;;;;;;-146.27;83.17;42588.00;5052679;28;20032;-72
2024/01/30 01:49:09;;;;;;;16.13;8.73;;;;;;;-146.27;83.28;42528.31;5053941;28;20415;-71
2024/01/30 01:51:36;;;;;;;18.25;8.98;;;;;;;-146.27;83.22;42516.41;5057971;28;20017;-71
2024/01/30 01:54:05;;;;;;;14.82;8.68;;;;;;;-146.27;83.55;42508.44;5064694;28;20044;-71
2024/01/30 01:56:31;;;;;;;12.85;8.23;;;;;;;-146.27;82.72;42512.41;5063680;28;20425;-71
2024/01/30 01:59:00;;;;;;;15.82;8.88;;;;;;;-146.27;82.40;42496.50;5057665;28;20100;-71
2024/01/30 02:01:27;;;;;;;12.38;8.10;;;;;;;-146.27;82.47;42524.34;5056767;28;20090;-71
2024/01/30 02:03:52;;;;;;;13.85;8.23;;;;;;;-146.27;82.81;42548.22;5051869;28;20385;-72
2024/01/30 02:06:19;;;;;;;22.38;8.30;;;;;;;-146.27;82.87;42494.53;5052174;28;20028;-71
2024/01/30 02:08:44;;;;;;;12.38;7.72;;;;;;;-146.27;83.20;42508.44;5065807;28;20032;-70
2024/01/30 02:11:10;;;;;;;14.02;8.32;;;;;;;-146.27;83.43;42524.34;5072060;28;20392;-71
2024/01/30 02:13:36;;;;;;;17.52;8.45;;;;;;;-146.27;83.28;42522.38;5061628;28;20396;-70
2024/01/30 02:16:02;;;;;;;13.40;7.45;;;;;;;-146.27;82.47;42502.47;5068591;28;20103;-70
2024/01/30 02:18:27;;;;;;;14.73;8.15;;;;;;;-146.27;82.45;42514.41;5071673;28;20472;-71
2024/01/30 02:20:56;;;;;;;12.27;7.80;;;;;;;-146.27;82.71;42526.34;5070088;28;20472;-72
2024/01/30 02:23:25;;;;;;;17.30;8.32;;;;;;;-146.27;82.79;42480.59;5072175;28;20655;-71
2024/01/30 02:25:52;;;;;;;12.57;8.10;;;;;;;-146.27;82.72;42484.56;5072086;28;20031;-72
2024/01/30 02:28:18;;;;;;;15.32;9.35;;;;;;;-146.27;82.59;42494.53;5071610;28;20106;-71
2024/01/30 02:30:45;;;;;;;11.57;8.00;;;;;;;-146.27;83.15;42510.44;5071939;28;20473;-72
2024/01/30 02:33:10;;;;;;;10.70;7.35;;;;;;;-146.27;83.24;42492.53;5071343;28;20052;-70
2024/01/30 02:35:35;;;;;;;11.40;7.30;;;;;;;-146.27;82.92;42480.59;5069948;28;20361;-73
2024/01/30 02:38:01;;;;;;;13.40;8.18;;;;;;;-146.27;83.95;42588.00;5056944;28;20026;-70
2024/01/30 02:40:26;;;;;;;12.27;7.13;;;;;;;-146.27;83.54;42520.38;5071277;28;20024;-71
2024/01/30 02:42:52;;;;;;;13.60;7.20;;;;;;;-146.27;83.36;42504.47;5062428;28;20025;-71
2024/01/30 02:45:18;;;;;;;14.80;7.60;;;;;;;-146.27;82.76;42508.44;5063040;28;20036;-70
2024/01/30 02:47:43;;;;;;;10.90;7.30;;;;;;;-146.27;82.76;42488.56;5070247;28;20073;-72
2024/01/30 02:50:09;;;;;;;11.95;7.38;;;;;;;-146.27;82.76;42472.66;5068185;28;20157;-71
2024/01/30 02:52:34;;;;;;;12.02;6.97;;;;;;;-146.27;82.53;42492.53;5065469;28;20054;-70
2024/01/30 02:55:00;;;;;;;12.70;7.70;;;;;;;-146.27;82.77;42492.53;5065276;28;20524;-70
2024/01/30 02:57:25;;;;;;;13.35;7.53;;;;;;;-146.27;82.60;42484.56;5071101;28;20021;-71
2024/01/30 02:59:51;;;;;;;12.48;7.53;;;;;;;-146.27;82.44;42480.59;5054667;28;20029;-72
2024/01/30 03:02:17;;;;;;;14.35;7.85;;;;;;;-146.27;82.52;42508.44;5051221;28;20500;-71
2024/01/30 03:04:42;;;;;;;12.05;7.78;;;;;;;-146.27;83.04;42506.44;5051141;28;20159;-71
2024/01/30 03:07:08;;;;;;;13.70;7.80;;;;;;;-146.27;83.17;42514.41;5050832;28;20013;-70
2024/01/30 03:09:33;;;;;;;13.90;7.97;;;;;;;-146.27;83.00;42500.47;5063649;28;20048;-71
2024/01/30 03:11:59;;;;;;;11.25;8.00;;;;;;;-146.27;82.93;42520.38;5064786;28;20039;-71
2024/01/30 03:14:24;;;;;;;11.15;7.55;;;;;;;-146.27;83.09;42504.47;5051190;28;20017;-72
2024/01/30 03:16:50;;;;;;;10.20;7.18;;;;;;;-146.27;83.51;42536.28;5051075;28;20032;-71
2024/01/30 03:19:15;;;;;;;16.75;8.15;;;;;;;-146.27;83.90;42500.47;5050434;28;20611;-71
2024/01/30 03:21:41;;;;;;;11.75;6.95;;;;;;;-146.27;84.23;42494.53;5057865;28;20033;-71
2024/01/30 03:24:06;;;;;;;15.23;7.32;;;;;;;-146.27;83.88;42480.59;5066017;28;20028;-70
2024/01/30 03:26:31;;;;;;;11.70;7.45;;;;;;;-146.27;83.39;42482.59;5058964;28;20024;-70
2024/01/30 03:28:57;;;;;;;13.23;7.57;;;;;;;-146.27;83.69;42452.75;5050335;28;20049;-70
2024/01/30 03:31:22;;;;;;;14.40;7.32;;;;;;;-146.27;84.21;42486.56;5059686;28;20452;-72
2024/01/30 03:33:48;;;;;;;12.93;7.70;;;;;;;-146.27;84.56;42538.28;5063983;28;20028;-72
2024/01/30 03:36:15;;;;;;;14.10;7.55;;;;;;;-146.27;84.50;42488.56;5050415;28;20469;-71
2024/01/30 03:38:40;;;;;;;12.45;7.20;;;;;;;-146.27;84.15;42468.66;5059181;28;20040;-71
2024/01/30 03:41:08;;;;;;;13.27;8.07;;;;;;;-146.27;84.14;42458.72;5057927;28;20481;-70
2024/01/30 03:43:33;;;;;;;11.50;7.57;;;;;;;-146.27;84.56;42472.66;5069273;28;20020;-72
2024/01/30 03:46:00;;;;;;;15.00;7.35;;;;;;;-146.27;83.62;42409.00;5070557;28;20153;-71
2024/01/30 03:48:26;;;;;;;11.30;6.55;;;;;;;-146.27;83.22;42389.13;5068968;28;20500;-71
2024/01/30 03:50:51;;;;;;;12.70;7.22;;;;;;;-146.27;83.87;42436.84;5062733;28;20021;-71
2024/01/30 03:53:17;;;;;;;10.57;7.30;;;;;;;-146.27;83.64;42436.84;5056958;28;20032;-72
2024/01/30 03:55:42;;;;;;;10.82;7.57;;;;;;;-146.27;83.75;42468.66;5067378;28;20141;-72
2024/01/30 03:58:08;;;;;;;11.93;7.32;;;;;;;-146.27;83.57;42438.84;5068369;28;20057;-71
2024/01/30 04:00:33;;;;;;;11.90;6.72;;;;;;;-146.27;83.74;42418.94;5050121;28;20393;-71
2024/01/30 04:02:59;;;;;;;10.25;6.75;;;;;;;-146.27;83.86;42464.69;5050099;28;20040;-72
2024/01/30 04:05:24;;;;;;;11.65;7.63;;;;;;;-146.27;83.96;42424.91;5050271;28;20029;-71
2024/01/30 04:07:50;;;;;;;16.08;7.80;;;;;;;-146.27;84.61;42454.75;5055600;28;20069;-71
2024/01/30 04:10:16;;;;;;;10.20;6.70;;;;;;;-146.27;83.59;42387.13;5058929;28;20105;-72
2024/01/30 04:12:41;;;;;;;11.48;7.22;;;;;;;-146.27;83.85;42430.88;5069910;28;20511;-71
2024/01/30 04:15:07;;;;;;;10.57;7.32;;;;;;;-146.27;84.47;42456.72;5069226;28;20031;-71
2024/01/30 04:17:33;;;;;;;9.85;6.55;;;;;;;-146.27;83.69;42389.13;5067597;28;20062;-71
2024/01/30 04:19:58;;;;;;;12.82;8.82;;;;;;;-146.27;84.21;42416.97;5050553;28;20099;-71
2024/01/30 04:22:24;;;;;;;10.30;7.00;;;;;;;-146.27;84.05;42452.75;5050669;28;20562;-71
2024/01/30 04:24:49;;;;;;;11.25;7.35;;;;;;;-146.27;84.50;42424.91;5056950;28;20032;-71
2024/01/30 04:27:14;;;;;;;12.95;7.05;;;;;;;-146.27;84.46;42420.94;5051050;28;20082;-70
2024/01/30 04:29:40;;;;;;;10.05;6.85;;;;;;;-146.27;83.68;42399.06;5049573;28;20056;-71
2024/01/30 04:32:06;;;;;;;12.30;7.30;;;;;;;-146.27;84.41;42474.63;5050027;28;20063;-70
2024/01/30 04:34:31;;;;;;;15.50;7.13;;;;;;;-146.27;84.94;42430.88;5068787;28;20139;-71
2024/01/30 04:36:56;;;;;;;13.65;6.88;;;;;;;-146.27;84.50;42401.06;5071082;28;20052;-73
2024/01/30 04:39:22;;;;;;;12.27;6.97;;;;;;;-146.27;84.09;42371.22;5058160;28;20060;-71
2024/01/30 04:41:48;;;;;;;11.55;7.03;;;;;;;-146.27;84.37;42411.00;5053719;28;20025;-71
2024/01/30 04:44:13;;;;;;;10.43;7.43;;;;;;;-146.27;83.55;42377.19;5070189;28;20067;-71
2024/01/30 04:46:39;;;;;;;14.27;6.97;;;;;;;-146.27;83.83;42414.97;5073779;28;20033;-71
2024/01/30 04:49:05;;;;;;;9.90;6.82;;;;;;;-146.27;85.19;42460.72;5069895;28;20029;-71
2024/01/30 04:51:30;;;;;;;13.02;7.18;;;;;;;-146.27;85.21;42418.94;5072237;28;20174;-72
2024/01/30 04:53:55;;;;;;;14.13;7.38;;;;;;;-146.27;84.27;42367.25;5062953;28;20025;-71
2024/01/30 04:56:21;;;;;;;13.48;7.82;;;;;;;-146.27;84.31;42397.06;5063703;28;20020;-71
2024/01/30 04:58:46;;;;;;;13.25;6.88;;;;;;;-146.27;83.88;42353.31;5058341;28;20040;-71
2024/01/30 05:01:17;;;;;;;16.83;7.55;;;;;;;-146.27;84.01;42319.50;5068419;28;20052;-71
2024/01/30 05:03:43;;;;;;;18.50;6.57;;;;;;;-146.27;83.86;42349.34;5063534;28;20028;-72
2024/01/30 05:06:08;;;;;;;15.57;7.18;;;;;;;-146.27;83.53;42385.13;5073196;28;20035;-71
2024/01/30 05:08:36;;;;;;;10.25;6.40;;;;;;;-146.27;84.12;42389.13;5072185;28;20485;-72
2024/01/30 05:11:03;;;;;;;14.55;6.93;;;;;;;-146.27;84.59;42397.06;5057502;28;20380;-71
2024/01/30 05:13:30;;;;;;;10.77;7.22;;;;;;;-146.27;84.65;42371.22;5063336;28;20024;-72
2024/01/30 05:15:56;;;;;;;13.45;7.35;;;;;;;-146.27;84.58;42355.31;5063544;28;20036;-71
2024/01/30 05:18:21;;;;;;;9.70;6.72;;;;;;;-146.27;84.86;42359.28;5068879;28;20482;-71
2024/01/30 05:20:47;;;;;;;16.70;7.90;;;;;;;-146.27;84.26;42353.31;5072537;28;20485;-71
2024/01/30 05:23:12;;;;;;;10.65;7.25;;;;;;;-146.27;84.59;42391.09;5065658;28;20493;-71
2024/01/30 05:25:37;;;;;;;10.20;7.10;;;;;;;-146.27;84.37;42333.44;5053050;28;20025;-72
2024/01/30 05:28:03;;;;;;;17.70;7.60;;;;;;;-146.27;84.18;42389.13;5066308;28;20074;-70
2024/01/30 05:30:28;;;;;;;11.73;7.07;;;;;;;-146.27;85.03;42412.97;5061852;28;20024;-72
2024/01/30 05:32:54;;;;;;;10.48;6.72;;;;;;;-146.27;84.09;42333.44;5063781;28;20127;-71
2024/01/30 05:35:21;;;;;;;13.38;7.68;;;;;;;-146.27;84.58;42345.38;5069787;28;20052;-71
2024/01/30 05:37:47;;;;;;;11.13;7.18;;;;;;;-146.27;83.87;42335.41;5063073;28;20485;-70
2024/01/30 05:40:13;;;;;;;10.38;7.10;;;;;;;-146.27;84.02;42337.41;5057243;28;20029;-71
2024/01/30 05:42:38;;;;;;;15.75;7.35;;;;;;;-146.27;84.80;42405.03;5052179;28;20029;-71
2024/01/30 05:45:05;;;;;;;15.18;7.55;;;;;;;-146.27;83.91;42325.47;5052643;28;20024;-70
2024/01/30 05:47:30;;;;;;;12.27;7.03;;;;;;;-146.27;83.32;42319.50;5068423;28;20029;-70
2024/01/30 05:49:56;;;;;;;11.18;7.30;;;;;;;-146.27;84.96;42397.06;5071899;28;20062;-72
2024/01/30 05:52:21;;;;;;;13.98;6.80;;;;;;;-146.27;84.67;42363.25;5071940;28;20147;-72
2024/01/30 05:54:47;;;;;;;14.60;6.75;;;;;;;-146.27;84.45;42353.31;5054410;28;20032;-69
2024/01/30 05:57:12;;;;;;;15.30;6.78;;;;;;;-146.27;84.32;42319.50;5059750;28;20029;-70
2024/01/30 05:59:37;;;;;;;17.85;8.00;;;;;;;-146.27;84.07;42297.63;5057173;28;20060;-71
2024/01/30 06:02:03;;;;;;;11.15;7.15;;;;;;;-146.27;83.51;42297.63;5052492;28;20477;-71
2024/01/30 06:04:29;;;;;;;13.20;7.60;;;;;;;-146.27;84.04;42291.66;5065856;28;20035;-70
2024/01/30 06:06:54;;;;;;;13.50;7.13;;;;;;;-146.27;83.92;42297.63;5070493;28;20025;-71
2024/01/30 06:09:19;;;;;;;12.30;7.03;;;;;;;-146.27;84.69;42295.66;5060250;28;20657;-69
2024/01/30 06:11:45;;;;;;;11.88;6.65;;;;;;;-146.27;84.44;42323.50;5054050;28;20048;-71
2024/01/30 06:14:10;;;;;;;15.23;7.63;;;;;;;-146.27;84.70;42339.41;5070306;28;20380;-71
2024/01/30 06:16:35;;;;;;;14.90;7.32;;;;;;;-146.27;84.77;42345.38;5072251;28;20097;-71
2024/01/30 06:19:01;;;;;;;12.27;6.78;;;;;;;-146.27;84.01;42269.78;5066565;28;20083;-71
2024/01/30 06:21:26;;;;;;;14.07;7.13;;;;;;;-146.27;84.95;42275.75;5071920;28;20043;-71
2024/01/30 06:23:51;;;;;;;15.32;7.55;;;;;;;-146.27;84.35;42277.75;5070122;28;20063;-71
2024/01/30 06:26:17;;;;;;;11.00;7.05;;;;;;;-146.27;84.66;42295.66;5069723;28;20036;-71
2024/01/30 06:28:42;;;;;;;12.70;7.07;;;;;;;-146.27;84.51;42253.88;5065088;28;20036;-71
2024/01/30 06:31:07;;;;;;;12.23;7.40;;;;;;;-146.27;84.64;42283.72;5069280;28;20028;-72
2024/01/30 06:33:33;;;;;;;18.30;7.10;;;;;;;-146.27;84.45;42273.78;5075206;28;20020;-71
2024/01/30 06:35:58;;;;;;;14.32;7.13;;;;;;;-146.27;85.09;42253.88;5085871;28;20059;-72
2024/01/30 06:38:24;;;;;;;10.25;6.65;;;;;;;-146.27;84.69;42236.00;5068584;28;20024;-71
2024/01/30 06:40:49;;;;;;;11.73;6.88;;;;;;;-146.27;84.22;42222.06;5070637;28;20056;-71
2024/01/30 06:43:14;;;;;;;15.35;7.90;;;;;;;-146.27;84.99;42267.81;5069751;28;20532;-71
2024/01/30 06:45:40;;;;;;;13.85;7.53;;;;;;;-146.27;84.48;42230.03;5069073;28;20024;-71
2024/01/30 06:48:07;;;;;;;15.95;7.35;;;;;;;-146.27;84.71;42226.03;5070065;28;20480;-70
2024/01/30 06:50:33;;;;;;;16.38;6.85;;;;;;;-146.27;84.66;42216.09;5062651;28;20419;-72
2024/01/30 06:52:58;;;;;;;14.40;6.97;;;;;;;-146.27;84.32;42198.19;5058376;28;20034;-71
2024/01/30 06:55:24;;;;;;;12.75;7.13;;;;;;;-146.27;83.50;42162.41;5061705;28;20360;-72
2024/01/30 06:57:49;;;;;;;19.52;7.10;;;;;;;-146.27;84.49;42168.38;5062325;28;20476;-73
2024/01/30 07:00:16;;;;;;;16.55;7.28;;;;;;;-146.27;83.71;42166.38;5062581;28;20024;-72
2024/01/30 07:02:41;;;;;;;10.57;6.63;;;;;;;-146.27;84.21;42206.16;5060037;28;20085;-71
2024/01/30 07:05:07;;;;;;;12.15;6.35;;;;;;;-146.27;84.03;42186.28;5089356;28;20059;-72
2024/01/30 07:07:32;;;;;;;12.05;6.70;;;;;;;-146.27;84.32;42255.88;5071050;28;20111;-72
2024/01/30 07:09:58;;;;;;;14.93;6.50;;;;;;;-146.27;83.39;42128.59;5069819;28;20035;-73
2024/01/30 07:12:25;;;;;;;16.30;7.43;;;;;;;-146.27;84.06;42228.03;5071578;28;20024;-71
2024/01/30 07:14:51;;;;;;;11.55;7.10;;;;;;;-146.27;84.40;42214.13;5070837;28;20058;-71
2024/01/30 07:17:17;;;;;;;15.65;7.18;;;;;;;-146.27;84.90;42249.91;5069887;28;20032;-71
2024/01/30 07:19:42;;;;;;;11.43;7.20;;;;;;;-146.27;83.90;42154.47;5069446;28;20149;-74
2024/01/30 07:22:08;;;;;;;16.10;7.15;;;;;;;-146.27;85.02;42245.94;5059267;28;20025;-73
2024/01/30 07:24:33;;;;;;;11.02;6.78;;;;;;;-146.27;84.80;42142.53;5060348;28;20500;-73
2024/01/30 07:26:59;;;;;;;14.80;6.82;;;;;;;-146.27;84.40;42110.72;5063246;28;20105;-72
2024/01/30 07:29:24;;;;;;;14.75;7.25;;;;;;;-146.27;83.93;42136.56;5062006;28;20045;-72
2024/01/30 07:31:50;;;;;;;15.57;6.85;;;;;;;-146.27;84.33;42130.59;5061979;28;20034;-72
2024/01/30 07:34:15;;;;;;;18.98;7.45;;;;;;;-146.27;85.34;42230.03;5063133;28;20029;-70
2024/01/30 07:36:41;;;;;;;10.75;6.47;;;;;;;-146.27;84.60;42150.47;5058359;28;20052;-72
2024/01/30 07:39:06;;;;;;;10.25;6.55;;;;;;;-146.27;83.53;42138.53;5089155;28;20012;-72
2024/01/30 07:41:31;;;;;;;19.25;7.28;;;;;;;-146.27;83.36;42118.66;5085480;28;20022;-71
2024/01/30 07:43:57;;;;;;;12.57;7.47;;;;;;;-146.27;83.61;42102.75;5075527;28;20028;-72
2024/01/30 07:46:22;;;;;;;10.68;7.38;;;;;;;-146.27;83.73;42051.06;5089863;28;20031;-72
2024/01/30 07:48:48;;;;;;;16.13;7.00;;;;;;;-146.27;83.36;42102.75;5089514;28;20055;-72
2024/01/30 07:51:13;;;;;;;16.70;7.57;;;;;;;-146.27;84.37;42126.63;5090333;28;20027;-72
2024/01/30 07:53:39;;;;;;;14.35;7.30;;;;;;;-146.27;85.13;42150.47;5089411;28;20469;-72
2024/01/30 07:56:05;;;;;;;18.88;8.13;;;;;;;-146.27;84.84;42142.53;5090436;28;20400;-71
2024/01/30 07:58:31;;;;;;;13.48;7.00;;;;;;;-146.27;83.35;42078.88;5070739;28;20048;-71
2024/01/30 08:00:58;;;;;;;13.82;6.45;;;;;;;-146.27;84.12;42136.56;5069986;28;20032;-71
2024/01/30 08:03:24;;;;;;;14.13;7.53;;;;;;;-146.27;84.50;42122.63;5070158;28;20483;-72
2024/01/30 08:05:49;;;;;;;14.85;7.65;;;;;;;-146.27;85.13;42174.34;5070105;28;20056;-72
2024/01/30 08:08:15;;;;;;;17.48;8.10;;;;;;;-146.27;84.28;42088.84;5080191;28;20052;-72
2024/01/30 08:10:40;;;;;;;19.10;7.75;;;;;;;-146.27;84.16;42066.97;5090136;28;20052;-72
2024/01/30 08:13:06;;;;;;;14.10;7.53;;;;;;;-146.27;84.99;42164.41;5072183;28;20081;-71
2024/01/30 08:15:31;;;;;;;17.42;7.25;;;;;;;-146.27;84.48;42092.81;5070035;28;20028;-70
2024/01/30 08:17:58;;;;;;;17.30;7.25;;;;;;;-146.27;86.53;42206.16;5070123;28;20028;-71
2024/01/30 08:20:24;;;;;;;13.32;8.35;;;;;;;-146.27;85.21;42070.94;5070559;28;20024;-73
2024/01/30 08:22:50;;;;;;;15.02;8.25;;;;;;;-146.27;84.96;42072.94;5069972;28;20025;-70
2024/01/30 08:25:15;;;;;;;17.27;8.48;;;;;;;-146.27;84.84;42086.84;5070116;28;20028;-72
2024/01/30 08:27:41;;;;;;;16.08;7.35;;;;;;;-146.27;84.71;42146.50;5067185;28;20035;-73
2024/01/30 08:30:07;;;;;;;17.40;7.72;;;;;;;-146.27;84.99;42098.78;5069900;28;20041;-72
2024/01/30 08:32:32;;;;;;;14.48;7.65;;;;;;;-146.27;84.20;42166.38;5069918;28;20105;-72
2024/01/30 08:34:58;;;;;;;18.00;8.57;;;;;;;-146.27;84.87;42162.41;5069882;28;20055;-72
2024/01/30 08:37:23;;;;;;;12.98;8.45;;;;;;;-146.27;84.61;42104.75;5073700;28;20028;-71
2024/01/30 08:39:49;;;;;;;15.02;7.88;;;;;;;-146.27;85.20;42152.47;5088614;28;20506;-70
2024/01/30 08:42:14;;;;;;;18.77;8.07;;;;;;;-146.27;84.47;42142.53;5079831;28;20124;-73
2024/01/30 08:44:40;;;;;;;16.92;7.45;;;;;;;-146.27;84.26;42130.59;5056812;28;20029;-72
2024/01/30 08:47:05;;;;;;;21.58;8.65;;;;;;;-146.27;83.95;42114.69;5051330;28;20029;-71
2024/01/30 08:49:31;;;;;;;20.10;8.40;;;;;;;-146.27;84.52;42186.28;5069859;28;20032;-70
2024/01/30 08:51:57;;;;;;;16.73;7.63;;;;;;;-146.27;83.96;42180.31;5069759;28;20093;-70
2024/01/30 08:54:23;;;;;;;15.30;7.78;;;;;;;-146.27;84.98;42234.00;5069916;28;20021;-70
2024/01/30 08:56:49;;;;;;;16.42;8.15;;;;;;;-146.27;84.93;42249.91;5069123;28;20021;-71
2024/01/30 08:59:14;;;;;;;17.40;8.35;;;;;;;-146.27;83.78;42144.50;5068213;28;20540;-70
2024/01/30 09:01:40;;;;;;;22.58;7.90;;;;;;;-146.27;83.27;42194.22;5069216;28;20066;-70
2024/01/30 09:04:05;;;;;;;16.33;7.93;;;;;;;-146.27;84.57;42377.19;5069111;28;20103;-71
2024/01/30 09:06:31;;;;;;;18.02;8.00;;;;;;;-146.27;83.76;42293.66;5069648;28;20028;-70
2024/01/30 09:08:57;;;;;;;19.52;8.18;;;;;;;-146.27;84.27;42345.38;5084827;28;20376;-72
2024/01/30 09:11:23;;;;;;;15.82;8.82;;;;;;;-146.27;85.02;42361.28;5072758;28;20029;-72
2024/01/30 09:13:49;;;;;;;13.13;7.70;;;;;;;-146.27;83.97;42393.09;5069662;28;20099;-72
2024/01/30 09:16:16;;;;;;;12.02;7.28;;;;;;;-146.27;82.70;42309.56;5068319;28;20024;-71
2024/01/30 09:18:41;;;;;;;11.30;6.97;;;;;;;-146.27;82.94;42484.56;5067489;28;20124;-71
2024/01/30 09:21:07;;;;;;;12.00;6.10;;;;;;;-146.27;82.48;42508.44;5069546;28;20103;-71
2024/01/30 09:23:33;;;;;;;10.20;5.88;;;;;;;-146.27;82.27;42548.22;5071263;28;20554;-70
2024/01/30 09:25:58;;;;;;;8.07;5.35;;;;;;;-146.27;83.11;42659.59;5069212;28;20025;-71
2024/01/30 09:28:24;;;;;;;11.52;5.43;;;;;;;-146.27;81.36;42603.91;5072118;28;20036;-71
2024/01/30 09:30:49;;;;;;;13.05;5.47;;;;;;;-146.27;80.78;42564.13;5073090;28;20019;-70
2024/01/30 09:33:15;;;;;;;12.98;5.78;;;;;;;-146.27;81.80;42629.75;5073166;28;20031;-71
2024/01/30 09:35:40;;;;;;;15.40;5.68;;;;;;;-146.27;81.76;42593.97;5072293;28;20103;-70
2024/01/30 09:38:06;;;;;;;16.52;5.93;;;;;;;-146.27;81.31;42599.94;5076535;28;20032;-70
2024/01/30 09:40:31;;;;;;;14.07;5.43;;;;;;;-146.27;83.09;42691.41;5072790;28;20021;-72
2024/01/30 09:42:59;;;;;;;11.63;5.75;;;;;;;-146.27;82.16;42627.78;5072873;28;20032;-69
2024/01/30 09:45:26;;;;;;;9.85;4.88;;;;;;;-146.27;82.80;42637.72;5071718;28;20051;-71
2024/01/30 09:47:52;;;;;;;10.00;5.05;;;;;;;-146.27;82.15;42629.75;5072867;28;20024;-71
2024/01/30 09:50:18;;;;;;;7.60;2.92;;;;;;;-146.27;82.22;42651.63;5072253;28;20024;-70
2024/01/30 09:52:45;;;;;;;8.18;2.70;;;;;;;-146.27;82.57;42711.31;5072044;28;20542;-69
2024/01/30 09:55:10;;;;;;;8.75;2.03;;;;;;;-146.27;82.53;42796.81;5072672;28;20103;-72
2024/01/30 09:57:36;;;;;;;16.50;3.30;;;;;;;-146.27;82.68;42838.59;5072619;28;20736;-69
2024/01/30 10:00:04;;;;;;;8.23;2.30;;;;;;;-146.27;82.51;42902.22;5072469;28;20032;-69
2024/01/30 10:02:31;;;;;;;11.75;2.05;;;;;;;-146.27;82.33;42806.75;5071329;28;20101;-69
2024/01/30 10:04:56;;;;;;;8.25;2.25;;;;;;;-146.27;81.92;42852.50;5072311;28;20025;-71
2024/01/30 10:07:23;;;;;;;10.75;2.10;;;;;;;-146.27;83.25;42946.00;5074101;28;20097;-69
2024/01/30 10:09:49;;;;;;;10.50;2.10;;;;;;;-146.27;82.57;42866.44;5092514;28;20024;-70
2024/01/30 10:12:15;;;;;;;11.77;2.40;;;;;;;-146.27;81.81;42898.25;5092625;28;20426;-69
2024/01/30 10:14:41;;;;;;;9.40;2.10;;;;;;;-146.27;82.90;43001.69;5092855;28;20086;-70
2024/01/30 10:17:11;;;;;;;5.30;2.22;;;;;;;-146.27;84.24;43085.22;5087391;28;20060;-69
2024/01/30 10:19:38;;;;;;;5.38;1.73;;;;;;;-146.27;84.14;43105.13;5070917;28;20025;-69
2024/01/30 10:22:04;;;;;;;8.25;1.80;;;;;;;-146.27;84.10;43061.34;5071601;28;20039;-70
2024/01/30 10:24:29;;;;;;;11.82;2.08;;;;;;;-146.27;84.18;43069.31;5071496;28;20384;-69
2024/01/30 10:26:55;;;;;;;7.43;1.20;;;;;;;-146.27;83.97;42987.75;5072170;28;20040;-70
2024/01/30 10:29:20;;;;;;;4.57;1.40;;;;;;;-146.27;83.85;42973.84;5071809;28;20492;-70
2024/01/30 10:31:46;;;;;;;2.88;0.98;;;;;;;-146.27;84.99;43041.47;5070471;28;20048;-70
2024/01/30 10:34:12;;;;;;;6.75;1.20;;;;;;;-146.27;85.13;42965.88;5070839;28;20037;-72
2024/01/30 10:36:42;;;;;;;5.80;1.50;;;;;;;-146.27;83.38;42864.44;5070841;28;20055;-70
2024/01/30 10:39:08;;;;;;;9.23;1.40;;;;;;;-146.27;83.92;42900.25;5071114;28;20093;-69
2024/01/30 10:41:42;;;;;;;6.03;1.27;;;;;;;-146.27;85.45;43053.41;5069660;28;20024;-70
2024/01/30 10:44:09;;;;;;;3.65;1.13;;;;;;;-146.27;85.67;43007.66;5069466;28;20440;-70
2024/01/30 10:46:37;;;;;;;8.07;1.15;;;;;;;-146.27;85.52;42977.81;5069253;28;20028;-70
2024/01/30 10:49:03;;;;;;;5.13;1.30;;;;;;;-146.27;85.81;43121.03;5073241;28;20112;-70
2024/01/30 10:51:29;;;;;;;8.70;1.30;;;;;;;-146.27;85.37;43117.06;5068494;28;20021;-70
2024/01/30 10:53:55;;;;;;;6.90;1.33;;;;;;;-146.27;84.24;43077.28;5063320;28;20051;-68
2024/01/30 10:56:22;;;;;;;7.97;1.00;;;;;;;-146.27;83.95;43055.38;5071343;28;20031;-70
2024/01/30 10:58:52;;;;;;;4.30;0.77;;;;;;;-146.27;85.51;43101.13;5071085;28;20016;-71
2024/01/30 11:01:19;;;;;;;7.68;1.73;;;;;;;-146.27;87.53;43119.03;5071235;28;20027;-70
2024/01/30 11:03:45;;;;;;;8.50;0.98;;;;;;;-146.27;88.33;43015.59;5071178;28;20044;-68